Time;durP1;ratioP1;P1;durP2;ratioP2;P2;SDS_P1;SDS_P2;PMS_P1;PMS_P2;Temp;Humidity;BMP_temperature;BMP_pressure;BME280_temperature;BME280_humidity;BME280_pressure;Samples;Min_cycle;Max_cycle;Signal;HPM_P1;HPM_P2
2021/09/11 00:00:57;;;;;;;36.38;17.27;;;;;;;;;;362521;145;856685;-59
2021/09/11 00:01:59;;;;;;;30.69;17.02;;;;;;;;;;362845;147;857330;-60
2021/09/11 00:03:00;;;;;;;30.43;17.07;;;;;;;;;;363172;145;858720;-60
2021/09/11 00:04:02;;;;;;;33.84;18.14;;;;;;;;;;361305;145;857189;-59
2021/09/11 00:05:04;;;;;;;34.33;17.81;;;;;;;;;;362872;147;864888;-59
2021/09/11 00:06:06;;;;;;;37.67;17.84;;;;;;;;;;364283;145;857792;-59
2021/09/11 00:07:08;;;;;;;29.83;17.94;;;;;;;;;;365222;145;866814;-59
2021/09/11 00:08:09;;;;;;;35.39;18.13;;;;;;;;;;360772;147;857907;-59
2021/09/11 00:09:11;;;;;;;33.52;18.45;;;;;;;;;;359747;145;857146;-59
2021/09/11 00:10:13;;;;;;;30.51;17.07;;;;;;;;;;362071;145;857284;-59
2021/09/11 00:11:14;;;;;;;29.49;18.26;;;;;;;;;;363607;144;857761;-59
2021/09/11 00:12:16;;;;;;;36.60;19.84;;;;;;;;;;361994;145;857220;-59
2021/09/11 00:13:17;;;;;;;28.80;17.89;;;;;;;;;;361255;147;857268;-59
2021/09/11 00:14:19;;;;;;;31.66;16.52;;;;;;;;;;361940;145;865957;-59
2021/09/11 00:15:20;;;;;;;33.79;18.53;;;;;;;;;;363248;145;857299;-59
2021/09/11 00:16:24;;;;;;;35.70;18.41;;;;;;;;;;363507;144;859836;-59
2021/09/11 00:17:25;;;;;;;30.66;18.94;;;;;;;;;;362670;145;857313;-59
2021/09/11 00:18:27;;;;;;;34.54;18.94;;;;;;;;;;359881;145;858094;-59
2021/09/11 00:19:28;;;;;;;35.65;18.38;;;;;;;;;;359290;147;859890;-59
2021/09/11 00:20:32;;;;;;;30.57;17.86;;;;;;;;;;356150;147;865041;-59
2021/09/11 00:21:33;;;;;;;31.92;17.86;;;;;;;;;;358849;147;859963;-59
2021/09/11 00:22:35;;;;;;;28.01;17.19;;;;;;;;;;359328;147;857304;-59
2021/09/11 00:23:38;;;;;;;32.26;17.72;;;;;;;;;;362367;147;857301;-59
2021/09/11 00:24:39;;;;;;;32.79;18.46;;;;;;;;;;358636;149;865789;-59
2021/09/11 00:25:41;;;;;;;32.01;19.29;;;;;;;;;;350936;150;858891;-59
2021/09/11 00:26:43;;;;;;;30.51;16.96;;;;;;;;;;358602;147;865922;-59
2021/09/11 00:27:44;;;;;;;34.34;18.18;;;;;;;;;;356926;147;864990;-59
2021/09/11 00:28:46;;;;;;;36.96;18.89;;;;;;;;;;359232;147;865103;-59
2021/09/11 00:29:48;;;;;;;32.21;18.14;;;;;;;;;;358986;147;857193;-60
2021/09/11 00:30:50;;;;;;;30.67;18.00;;;;;;;;;;360632;147;857341;-59
2021/09/11 00:31:51;;;;;;;31.84;16.91;;;;;;;;;;360193;147;857309;-59
2021/09/11 00:32:53;;;;;;;30.31;17.33;;;;;;;;;;358354;147;859859;-59
2021/09/11 00:33:55;;;;;;;34.30;18.63;;;;;;;;;;359029;147;865241;-59
2021/09/11 00:34:56;;;;;;;29.09;17.48;;;;;;;;;;353596;148;857528;-59
2021/09/11 00:35:58;;;;;;;33.57;18.04;;;;;;;;;;357590;147;858950;-59
2021/09/11 00:37:00;;;;;;;30.09;17.37;;;;;;;;;;358885;148;858672;-59
2021/09/11 00:38:02;;;;;;;33.02;17.22;;;;;;;;;;359725;147;857885;-59
2021/09/11 00:39:03;;;;;;;28.70;17.77;;;;;;;;;;358707;148;865297;-59
2021/09/11 00:40:06;;;;;;;33.82;17.82;;;;;;;;;;358144;147;857770;-59
2021/09/11 00:41:08;;;;;;;30.07;17.69;;;;;;;;;;359072;147;857740;-59
2021/09/11 00:42:10;;;;;;;30.01;16.62;;;;;;;;;;360113;147;857690;-59
2021/09/11 00:43:12;;;;;;;32.03;17.75;;;;;;;;;;357590;147;865172;-58
2021/09/11 00:44:13;;;;;;;48.04;19.95;;;;;;;;;;359570;147;858077;-59
2021/09/11 00:45:15;;;;;;;31.28;17.41;;;;;;;;;;359720;147;865934;-59
2021/09/11 00:46:19;;;;;;;30.46;18.05;;;;;;;;;;356287;149;857854;-59
2021/09/11 00:47:20;;;;;;;33.61;17.67;;;;;;;;;;358826;147;857571;-59
2021/09/11 00:48:22;;;;;;;30.84;18.91;;;;;;;;;;360509;147;858176;-59
2021/09/11 00:49:24;;;;;;;31.13;17.09;;;;;;;;;;358306;147;858733;-59
2021/09/11 00:50:26;;;;;;;25.01;16.38;;;;;;;;;;359465;147;859504;-59
2021/09/11 00:51:28;;;;;;;32.32;17.68;;;;;;;;;;357345;147;858768;-59
2021/09/11 00:52:30;;;;;;;28.51;16.44;;;;;;;;;;351299;150;864942;-59
2021/09/11 00:53:31;;;;;;;27.16;17.13;;;;;;;;;;348995;150;857282;-59
2021/09/11 00:54:33;;;;;;;31.94;17.88;;;;;;;;;;352410;150;857272;-59
2021/09/11 00:55:35;;;;;;;35.50;17.84;;;;;;;;;;358631;147;857331;-58
2021/09/11 00:56:37;;;;;;;29.34;16.87;;;;;;;;;;362324;147;858838;-59
2021/09/11 00:57:46;;;;;;;26.66;16.83;;;;;;;;;;360498;147;859557;-59
2021/09/11 00:58:48;;;;;;;29.57;17.31;;;;;;;;;;358022;147;857390;-60
2021/09/11 00:59:49;;;;;;;29.77;17.47;;;;;;;;;;358885;147;859422;-60
2021/09/11 01:00:52;;;;;;;32.27;16.97;;;;;;;;;;358016;149;857299;-61
2021/09/11 01:01:53;;;;;;;31.51;17.56;;;;;;;;;;358647;147;857407;-60
2021/09/11 01:02:55;;;;;;;28.64;16.74;;;;;;;;;;359180;147;866010;-60
2021/09/11 01:03:56;;;;;;;30.21;17.64;;;;;;;;;;363360;147;858921;-61
2021/09/11 01:04:58;;;;;;;31.42;17.06;;;;;;;;;;358515;148;865002;-60
2021/09/11 01:06:00;;;;;;;29.38;17.61;;;;;;;;;;359985;147;857141;-60
2021/09/11 01:07:02;;;;;;;30.44;17.56;;;;;;;;;;357665;147;864892;-60
2021/09/11 01:08:03;;;;;;;32.35;17.22;;;;;;;;;;351816;149;864950;-61
2021/09/11 01:09:05;;;;;;;33.24;17.73;;;;;;;;;;352839;149;864898;-61
2021/09/11 01:10:08;;;;;;;29.90;17.84;;;;;;;;;;358406;147;857330;-60
2021/09/11 01:11:09;;;;;;;34.39;19.79;;;;;;;;;;357429;148;857747;-61
2021/09/11 01:12:11;;;;;;;32.08;19.76;;;;;;;;;;357380;147;858586;-60
2021/09/11 01:13:13;;;;;;;35.94;20.02;;;;;;;;;;359728;147;858269;-60
2021/09/11 01:14:14;;;;;;;37.01;21.31;;;;;;;;;;359192;147;864904;-60
2021/09/11 01:15:17;;;;;;;34.82;21.71;;;;;;;;;;360816;147;857531;-61
2021/09/11 01:16:19;;;;;;;36.00;21.95;;;;;;;;;;358342;147;866631;-60
2021/09/11 01:17:20;;;;;;;39.42;23.46;;;;;;;;;;360970;147;857173;-60
2021/09/11 01:18:22;;;;;;;40.69;22.46;;;;;;;;;;361202;147;861304;-61
2021/09/11 01:19:24;;;;;;;35.11;21.54;;;;;;;;;;358588;148;859044;-61
2021/09/11 01:20:27;;;;;;;38.26;22.21;;;;;;;;;;357656;147;860024;-62
2021/09/11 01:21:28;;;;;;;33.30;20.67;;;;;;;;;;359276;147;858384;-61
2021/09/11 01:22:30;;;;;;;36.36;23.38;;;;;;;;;;360812;147;857166;-60
2021/09/11 01:23:33;;;;;;;36.39;23.38;;;;;;;;;;359345;147;857227;-60
2021/09/11 01:24:35;;;;;;;38.86;24.74;;;;;;;;;;359780;147;857211;-60
2021/09/11 01:25:37;;;;;;;37.38;23.81;;;;;;;;;;357883;147;859413;-61
2021/09/11 01:26:39;;;;;;;35.73;23.07;;;;;;;;;;355712;147;857292;-60
2021/09/11 01:27:41;;;;;;;41.19;25.47;;;;;;;;;;359679;147;857415;-61
2021/09/11 01:28:42;;;;;;;39.94;26.39;;;;;;;;;;359094;147;859949;-61
2021/09/11 01:29:46;;;;;;;44.56;29.39;;;;;;;;;;358986;147;865151;-60
2021/09/11 01:30:49;;;;;;;43.88;26.36;;;;;;;;;;358684;147;859731;-61
2021/09/11 01:31:50;;;;;;;37.96;24.31;;;;;;;;;;358446;148;858649;-60
2021/09/11 01:32:52;;;;;;;41.47;25.86;;;;;;;;;;359803;147;866704;-61
2021/09/11 01:33:54;;;;;;;50.73;29.70;;;;;;;;;;359403;147;859361;-60
2021/09/11 01:34:55;;;;;;;41.09;29.15;;;;;;;;;;359193;147;857409;-60
2021/09/11 01:35:57;;;;;;;50.57;30.74;;;;;;;;;;360278;147;860141;-61
2021/09/11 01:36:58;;;;;;;55.67;31.43;;;;;;;;;;357851;148;863822;-57
2021/09/11 01:38:00;;;;;;;52.11;33.54;;;;;;;;;;359051;147;866336;-59
2021/09/11 01:39:02;;;;;;;55.30;36.26;;;;;;;;;;359444;147;866893;-59
2021/09/11 01:40:04;;;;;;;53.79;36.15;;;;;;;;;;361066;147;857013;-59
2021/09/11 01:41:06;;;;;;;64.56;39.62;;;;;;;;;;360046;147;866915;-59
2021/09/11 01:42:07;;;;;;;63.59;39.11;;;;;;;;;;359447;147;856425;-60
2021/09/11 01:43:09;;;;;;;65.15;39.86;;;;;;;;;;361748;147;857219;-59
2021/09/11 01:44:10;;;;;;;61.94;39.57;;;;;;;;;;355904;147;865097;-60
2021/09/11 01:45:19;;;;;;;66.90;41.82;;;;;;;;;;358785;148;857376;-60
2021/09/11 01:46:22;;;;;;;65.54;41.32;;;;;;;;;;360199;147;857210;-61
2021/09/11 01:47:23;;;;;;;68.54;40.24;;;;;;;;;;359145;147;858972;-60
2021/09/11 01:48:28;;;;;;;62.90;40.14;;;;;;;;;;357128;148;865849;-59
2021/09/11 01:49:30;;;;;;;61.17;39.67;;;;;;;;;;357344;148;866062;-60
2021/09/11 01:50:33;;;;;;;67.34;40.64;;;;;;;;;;358465;147;857245;-59
2021/09/11 01:51:34;;;;;;;64.29;39.74;;;;;;;;;;356735;147;859856;-59
2021/09/11 01:52:36;;;;;;;60.81;39.79;;;;;;;;;;353998;150;857375;-59
2021/09/11 01:53:37;;;;;;;66.46;42.48;;;;;;;;;;351529;150;865079;-59
2021/09/11 01:54:40;;;;;;;69.14;45.26;;;;;;;;;;358611;147;866467;-59
2021/09/11 01:55:41;;;;;;;76.82;49.38;;;;;;;;;;358990;147;859019;-59
2021/09/11 01:56:43;;;;;;;77.73;52.24;;;;;;;;;;359972;147;858783;-60
2021/09/11 01:57:47;;;;;;;95.48;56.80;;;;;;;;;;358909;147;858951;-59
2021/09/11 01:58:48;;;;;;;87.48;57.51;;;;;;;;;;359043;148;858088;-58
2021/09/11 01:59:50;;;;;;;88.34;56.33;;;;;;;;;;355816;147;857355;-56
2021/09/11 02:00:53;;;;;;;93.17;56.37;;;;;;;;;;352076;150;861262;-59
2021/09/11 02:01:55;;;;;;;84.21;54.34;;;;;;;;;;351801;148;858019;-59
2021/09/11 02:02:57;;;;;;;80.33;53.64;;;;;;;;;;352026;150;864843;-59
2021/09/11 02:03:58;;;;;;;72.73;47.61;;;;;;;;;;351837;152;857281;-59
2021/09/11 02:05:00;;;;;;;74.70;47.54;;;;;;;;;;353522;151;858986;-59
2021/09/11 02:06:01;;;;;;;83.41;52.29;;;;;;;;;;352483;151;858947;-59
2021/09/11 02:07:04;;;;;;;85.02;51.20;;;;;;;;;;350230;152;864818;-59
2021/09/11 02:08:07;;;;;;;78.97;50.81;;;;;;;;;;353434;148;857455;-59
2021/09/11 02:09:09;;;;;;;79.39;49.23;;;;;;;;;;352680;148;858573;-59
2021/09/11 02:10:11;;;;;;;79.27;50.61;;;;;;;;;;352680;149;857218;-59
2021/09/11 02:11:13;;;;;;;74.21;51.32;;;;;;;;;;351888;150;857565;-59
2021/09/11 02:12:14;;;;;;;84.14;50.46;;;;;;;;;;352444;148;857942;-59
2021/09/11 02:13:16;;;;;;;75.48;47.84;;;;;;;;;;354716;150;858355;-59
2021/09/11 02:14:17;;;;;;;78.16;49.15;;;;;;;;;;352479;151;861566;-60
2021/09/11 02:15:19;;;;;;;75.85;49.60;;;;;;;;;;350684;150;859934;-59
2021/09/11 02:16:21;;;;;;;87.42;56.15;;;;;;;;;;353481;150;859052;-59
2021/09/11 02:17:23;;;;;;;91.33;57.92;;;;;;;;;;354276;150;860142;-59
2021/09/11 02:18:24;;;;;;;90.05;59.84;;;;;;;;;;352050;151;865002;-59
2021/09/11 02:19:26;;;;;;;91.71;58.91;;;;;;;;;;352447;148;857243;-59
2021/09/11 02:20:29;;;;;;;93.93;60.35;;;;;;;;;;352396;149;857754;-59
2021/09/11 02:21:31;;;;;;;92.21;59.95;;;;;;;;;;351953;150;857970;-59
2021/09/11 02:22:32;;;;;;;95.89;61.19;;;;;;;;;;353012;149;857308;-59
2021/09/11 02:23:34;;;;;;;95.29;62.51;;;;;;;;;;353135;148;857290;-59
2021/09/11 02:24:35;;;;;;;95.79;63.46;;;;;;;;;;353951;151;857195;-59
2021/09/11 02:25:38;;;;;;;104.07;65.72;;;;;;;;;;348914;151;858012;-59
2021/09/11 02:26:40;;;;;;;90.57;59.26;;;;;;;;;;351664;148;864963;-59
2021/09/11 02:27:42;;;;;;;86.55;59.70;;;;;;;;;;352685;150;858533;-58
2021/09/11 02:28:44;;;;;;;89.81;61.46;;;;;;;;;;349597;152;857178;-59
2021/09/11 02:29:45;;;;;;;91.48;62.47;;;;;;;;;;351756;151;859111;-59
2021/09/11 02:30:47;;;;;;;89.67;60.19;;;;;;;;;;352675;149;866213;-59
2021/09/11 02:31:49;;;;;;;85.42;56.46;;;;;;;;;;353558;151;858263;-59
2021/09/11 02:32:50;;;;;;;82.58;58.10;;;;;;;;;;350704;152;859514;-59
2021/09/11 02:33:52;;;;;;;85.12;55.98;;;;;;;;;;351886;150;865862;-59
2021/09/11 02:34:54;;;;;;;90.32;59.97;;;;;;;;;;352206;151;857557;-59
2021/09/11 02:35:55;;;;;;;85.99;56.88;;;;;;;;;;353020;152;857369;-59
2021/09/11 02:36:58;;;;;;;91.58;60.21;;;;;;;;;;353880;151;866712;-59
2021/09/11 02:37:59;;;;;;;93.45;64.51;;;;;;;;;;352984;148;857307;-59
2021/09/11 02:39:01;;;;;;;103.07;66.96;;;;;;;;;;354286;150;867988;-59
2021/09/11 02:40:03;;;;;;;101.80;72.54;;;;;;;;;;352618;149;865806;-59
2021/09/11 02:41:05;;;;;;;103.05;70.91;;;;;;;;;;352498;149;865867;-59
2021/09/11 02:42:06;;;;;;;92.09;66.36;;;;;;;;;;353510;148;858049;-59
2021/09/11 02:43:08;;;;;;;97.86;69.21;;;;;;;;;;351977;150;856602;-59
2021/09/11 02:44:09;;;;;;;106.26;67.74;;;;;;;;;;353788;151;865467;-59
2021/09/11 02:45:11;;;;;;;102.56;70.57;;;;;;;;;;351476;152;857291;-59
2021/09/11 02:46:15;;;;;;;105.51;68.83;;;;;;;;;;352335;148;865923;-58
2021/09/11 02:47:18;;;;;;;97.34;67.44;;;;;;;;;;354299;150;857899;-59
2021/09/11 02:48:19;;;;;;;99.48;67.78;;;;;;;;;;353828;151;860342;-59
2021/09/11 02:49:21;;;;;;;93.13;64.99;;;;;;;;;;353214;148;859615;-59
2021/09/11 02:50:24;;;;;;;88.08;60.42;;;;;;;;;;352356;149;857900;-59
2021/09/11 02:51:25;;;;;;;89.17;60.25;;;;;;;;;;353083;152;858160;-59
2021/09/11 02:52:27;;;;;;;90.58;58.41;;;;;;;;;;353171;148;859112;-59
2021/09/11 02:53:28;;;;;;;86.37;58.14;;;;;;;;;;353386;150;857869;-60
2021/09/11 02:54:30;;;;;;;88.94;60.00;;;;;;;;;;352602;150;864963;-58
2021/09/11 02:55:31;;;;;;;88.69;58.65;;;;;;;;;;352630;152;858766;-59
2021/09/11 02:56:34;;;;;;;81.25;55.84;;;;;;;;;;352946;148;865757;-59
2021/09/11 02:57:36;;;;;;;80.39;54.38;;;;;;;;;;352901;151;864748;-59
2021/09/11 02:58:37;;;;;;;76.94;55.23;;;;;;;;;;353709;151;857254;-59
2021/09/11 02:59:39;;;;;;;76.19;50.23;;;;;;;;;;352995;150;857285;-59
2021/09/11 03:00:42;;;;;;;78.54;52.21;;;;;;;;;;354004;148;857275;-59
2021/09/11 03:01:44;;;;;;;81.54;49.51;;;;;;;;;;359507;147;858853;-59
2021/09/11 03:02:46;;;;;;;69.74;49.20;;;;;;;;;;359578;147;857414;-60
2021/09/11 03:03:47;;;;;;;81.03;49.62;;;;;;;;;;362417;147;859261;-60
2021/09/11 03:04:49;;;;;;;70.77;48.18;;;;;;;;;;359323;147;857247;-59
2021/09/11 03:05:50;;;;;;;73.74;49.41;;;;;;;;;;359151;147;859777;-58
2021/09/11 03:06:53;;;;;;;69.41;48.45;;;;;;;;;;358807;147;865063;-59
2021/09/11 03:07:54;;;;;;;73.54;47.60;;;;;;;;;;357803;148;858725;-58
2021/09/11 03:08:56;;;;;;;72.33;48.16;;;;;;;;;;357534;148;857610;-58
2021/09/11 03:09:58;;;;;;;64.54;44.88;;;;;;;;;;359601;147;857788;-59
2021/09/11 03:10:59;;;;;;;67.31;46.19;;;;;;;;;;358393;147;857181;-60
2021/09/11 03:12:01;;;;;;;69.91;46.91;;;;;;;;;;359332;147;864664;-59
2021/09/11 03:13:02;;;;;;;70.90;50.69;;;;;;;;;;359977;147;857158;-60
2021/09/11 03:14:04;;;;;;;73.91;47.91;;;;;;;;;;356478;147;857680;-59
2021/09/11 03:15:06;;;;;;;69.47;49.63;;;;;;;;;;357304;147;862144;-58
2021/09/11 03:16:09;;;;;;;68.32;48.58;;;;;;;;;;358083;147;856978;-59
2021/09/11 03:17:10;;;;;;;70.49;50.25;;;;;;;;;;358723;147;856347;-59
2021/09/11 03:18:12;;;;;;;76.41;52.34;;;;;;;;;;357862;147;857646;-59
2021/09/11 03:19:13;;;;;;;79.29;51.81;;;;;;;;;;357938;148;859680;-59
2021/09/11 03:20:17;;;;;;;76.11;51.59;;;;;;;;;;359112;147;864867;-59
2021/09/11 03:21:18;;;;;;;74.16;49.94;;;;;;;;;;357713;147;857318;-60
2021/09/11 03:22:20;;;;;;;75.99;51.45;;;;;;;;;;358205;148;858886;-60
2021/09/11 03:23:21;;;;;;;78.61;51.93;;;;;;;;;;359079;147;865899;-60
2021/09/11 03:24:23;;;;;;;69.59;50.14;;;;;;;;;;358635;147;859091;-59
2021/09/11 03:25:25;;;;;;;76.51;51.84;;;;;;;;;;359642;147;859068;-59
2021/09/11 03:26:27;;;;;;;67.37;48.91;;;;;;;;;;359140;147;858823;-59
2021/09/11 03:27:28;;;;;;;70.61;47.46;;;;;;;;;;358729;147;857721;-61
2021/09/11 03:28:30;;;;;;;82.49;51.31;;;;;;;;;;356916;150;859185;-60
2021/09/11 03:29:31;;;;;;;72.84;50.23;;;;;;;;;;358300;148;864152;-60
2021/09/11 03:30:34;;;;;;;72.52;49.52;;;;;;;;;;359472;147;859616;-60
2021/09/11 03:31:35;;;;;;;72.76;49.64;;;;;;;;;;358941;147;860810;-60
2021/09/11 03:32:37;;;;;;;79.00;47.85;;;;;;;;;;359395;147;861722;-60
2021/09/11 03:33:39;;;;;;;67.07;44.30;;;;;;;;;;358225;147;857390;-60
2021/09/11 03:34:40;;;;;;;68.82;43.43;;;;;;;;;;358456;147;858871;-60
2021/09/11 03:35:42;;;;;;;64.67;41.72;;;;;;;;;;358692;147;858849;-60
2021/09/11 03:36:44;;;;;;;62.47;40.81;;;;;;;;;;354472;148;864700;-60
2021/09/11 03:37:45;;;;;;;60.87;38.99;;;;;;;;;;357608;148;857375;-60
2021/09/11 03:38:47;;;;;;;54.64;37.26;;;;;;;;;;358386;147;857066;-60
2021/09/11 03:39:49;;;;;;;56.86;39.46;;;;;;;;;;354904;150;857505;-60
2021/09/11 03:40:51;;;;;;;56.03;39.06;;;;;;;;;;360746;147;857374;-59
2021/09/11 03:41:52;;;;;;;58.59;39.34;;;;;;;;;;357503;147;857315;-59
2021/09/11 03:42:54;;;;;;;60.42;39.95;;;;;;;;;;359676;147;860840;-59
2021/09/11 03:43:55;;;;;;;52.60;37.52;;;;;;;;;;359696;147;860359;-60
2021/09/11 03:44:57;;;;;;;54.88;37.16;;;;;;;;;;357751;147;857369;-59
2021/09/11 03:45:58;;;;;;;59.16;37.09;;;;;;;;;;359192;147;860986;-60
2021/09/11 03:47:02;;;;;;;58.08;39.01;;;;;;;;;;357999;150;865799;-60
2021/09/11 03:48:04;;;;;;;58.50;38.09;;;;;;;;;;358800;149;857616;-60
2021/09/11 03:49:05;;;;;;;58.17;39.01;;;;;;;;;;357527;147;865535;-60
2021/09/11 03:50:08;;;;;;;63.24;39.85;;;;;;;;;;351756;152;857951;-60
2021/09/11 03:51:10;;;;;;;56.61;38.51;;;;;;;;;;357267;147;857407;-59
2021/09/11 03:52:12;;;;;;;60.22;38.12;;;;;;;;;;356643;148;864967;-59
2021/09/11 03:53:13;;;;;;;53.25;37.75;;;;;;;;;;358660;147;859154;-59
2021/09/11 03:54:15;;;;;;;56.71;37.08;;;;;;;;;;358855;147;865905;-59
2021/09/11 03:55:16;;;;;;;53.34;35.36;;;;;;;;;;358616;147;858133;-63
2021/09/11 03:56:20;;;;;;;54.36;34.66;;;;;;;;;;357515;147;860019;-61
2021/09/11 03:57:21;;;;;;;54.73;34.28;;;;;;;;;;358287;148;857253;-61
2021/09/11 03:58:23;;;;;;;50.08;32.99;;;;;;;;;;354470;147;858230;-59
2021/09/11 03:59:24;;;;;;;50.51;31.76;;;;;;;;;;362816;147;857370;-60
2021/09/11 04:00:28;;;;;;;48.57;32.29;;;;;;;;;;357870;147;859821;-61
2021/09/11 04:01:29;;;;;;;50.80;32.19;;;;;;;;;;359304;148;858990;-61
2021/09/11 04:02:31;;;;;;;49.54;31.09;;;;;;;;;;360684;147;865253;-61
2021/09/11 04:03:33;;;;;;;45.96;30.97;;;;;;;;;;358692;148;864709;-61
2021/09/11 04:04:34;;;;;;;47.49;31.69;;;;;;;;;;358325;148;857595;-60
2021/09/11 04:05:36;;;;;;;51.61;30.16;;;;;;;;;;356490;147;857146;-60
2021/09/11 04:06:39;;;;;;;50.17;31.21;;;;;;;;;;358208;147;858970;-59
2021/09/11 04:07:40;;;;;;;50.04;31.10;;;;;;;;;;358103;147;858919;-60
2021/09/11 04:08:42;;;;;;;49.64;30.52;;;;;;;;;;358739;148;857139;-59
2021/09/11 04:09:43;;;;;;;45.36;30.98;;;;;;;;;;358395;147;857260;-61
2021/09/11 04:10:45;;;;;;;43.09;29.97;;;;;;;;;;357313;147;857325;-59
2021/09/11 04:11:47;;;;;;;45.81;29.89;;;;;;;;;;359741;147;857295;-62
2021/09/11 04:12:48;;;;;;;45.46;29.95;;;;;;;;;;359355;147;857389;-61
2021/09/11 04:13:50;;;;;;;39.18;21.69;;;;;;;;;;358713;148;857336;-59
2021/09/11 04:14:52;;;;;;;44.66;23.01;;;;;;;;;;358755;147;858767;-60
2021/09/11 04:15:53;;;;;;;40.09;22.42;;;;;;;;;;359086;147;865498;-60
2021/09/11 04:16:55;;;;;;;43.43;25.25;;;;;;;;;;356629;147;859054;-60
2021/09/11 04:17:56;;;;;;;41.74;28.89;;;;;;;;;;358579;148;857819;-60
2021/09/11 04:18:58;;;;;;;46.96;30.28;;;;;;;;;;358130;147;865039;-60
2021/09/11 04:20:00;;;;;;;45.28;29.64;;;;;;;;;;358677;148;857036;-58
2021/09/11 04:21:01;;;;;;;39.02;24.70;;;;;;;;;;358571;147;856105;-58
2021/09/11 04:22:03;;;;;;;37.74;21.39;;;;;;;;;;358135;148;865508;-58
2021/09/11 04:23:05;;;;;;;42.29;25.28;;;;;;;;;;358057;147;865463;-58
2021/09/11 04:24:07;;;;;;;38.26;21.26;;;;;;;;;;361735;147;857018;-59
2021/09/11 04:25:08;;;;;;;31.94;20.14;;;;;;;;;;359497;147;856841;-60
2021/09/11 04:26:11;;;;;;;36.17;21.34;;;;;;;;;;360070;147;856234;-59
2021/09/11 04:27:12;;;;;;;34.12;20.53;;;;;;;;;;358020;147;857772;-59
2021/09/11 04:28:14;;;;;;;37.36;20.69;;;;;;;;;;359434;147;858212;-59
2021/09/11 04:29:16;;;;;;;30.05;19.30;;;;;;;;;;359519;147;864779;-59
2021/09/11 04:30:18;;;;;;;36.13;19.45;;;;;;;;;;357740;147;866862;-59
2021/09/11 04:31:19;;;;;;;33.61;18.91;;;;;;;;;;359917;147;857741;-59
2021/09/11 04:32:21;;;;;;;29.29;19.57;;;;;;;;;;358451;148;860686;-59
2021/09/11 04:33:22;;;;;;;29.16;18.33;;;;;;;;;;358659;147;858266;-59
2021/09/11 04:34:24;;;;;;;32.11;18.88;;;;;;;;;;358972;147;857305;-60
2021/09/11 04:35:25;;;;;;;34.04;18.19;;;;;;;;;;358720;147;864949;-62
2021/09/11 04:36:27;;;;;;;28.43;16.90;;;;;;;;;;358755;148;857176;-61
2021/09/11 04:37:29;;;;;;;30.01;18.26;;;;;;;;;;358275;148;857233;-62
2021/09/11 04:38:31;;;;;;;31.96;17.54;;;;;;;;;;357875;148;857200;-62
2021/09/11 04:39:32;;;;;;;37.09;20.23;;;;;;;;;;357733;147;858913;-60
2021/09/11 04:40:34;;;;;;;34.26;18.49;;;;;;;;;;358488;147;858260;-60
2021/09/11 04:41:35;;;;;;;32.82;16.30;;;;;;;;;;358986;147;864598;-60
2021/09/11 04:42:37;;;;;;;30.14;16.99;;;;;;;;;;349684;149;859578;-60
2021/09/11 04:43:39;;;;;;;38.79;21.64;;;;;;;;;;350012;150;866778;-60
2021/09/11 04:44:40;;;;;;;36.91;20.65;;;;;;;;;;357754;147;857746;-60
2021/09/11 04:45:44;;;;;;;32.16;18.73;;;;;;;;;;358569;147;858111;-60
2021/09/11 04:46:47;;;;;;;31.94;19.22;;;;;;;;;;358270;147;865048;-60
2021/09/11 04:47:49;;;;;;;37.61;22.36;;;;;;;;;;359059;148;858379;-60
2021/09/11 04:48:50;;;;;;;37.76;21.78;;;;;;;;;;359076;147;866230;-60
2021/09/11 04:49:52;;;;;;;33.89;20.71;;;;;;;;;;358694;147;857425;-60
2021/09/11 04:50:54;;;;;;;33.61;20.79;;;;;;;;;;357832;147;857442;-60
2021/09/11 04:51:55;;;;;;;31.56;18.28;;;;;;;;;;359036;147;856200;-60
2021/09/11 04:52:57;;;;;;;31.49;19.21;;;;;;;;;;359967;147;865084;-60
2021/09/11 04:53:58;;;;;;;31.69;21.05;;;;;;;;;;358874;147;865042;-60
2021/09/11 04:55:00;;;;;;;30.79;18.62;;;;;;;;;;357250;147;857185;-60
2021/09/11 04:56:02;;;;;;;37.65;21.79;;;;;;;;;;359059;147;856346;-61
2021/09/11 04:57:04;;;;;;;36.61;19.68;;;;;;;;;;360527;147;865578;-60
2021/09/11 04:58:05;;;;;;;31.30;19.48;;;;;;;;;;360641;147;858427;-60
2021/09/11 04:59:07;;;;;;;30.21;18.64;;;;;;;;;;357886;148;857867;-60
2021/09/11 05:00:10;;;;;;;37.49;19.75;;;;;;;;;;358781;147;856653;-61
2021/09/11 05:01:11;;;;;;;32.69;20.37;;;;;;;;;;359604;147;859912;-60
2021/09/11 05:02:13;;;;;;;31.55;18.68;;;;;;;;;;356301;147;858605;-61
2021/09/11 05:03:15;;;;;;;27.56;17.51;;;;;;;;;;356548;148;865049;-60
2021/09/11 05:04:16;;;;;;;29.41;17.50;;;;;;;;;;355838;148;857714;-60
2021/09/11 05:05:18;;;;;;;34.36;18.81;;;;;;;;;;356450;148;857219;-61
2021/09/11 05:06:20;;;;;;;30.17;17.87;;;;;;;;;;355456;150;857336;-61
2021/09/11 05:07:22;;;;;;;30.17;18.99;;;;;;;;;;354588;149;858017;-60
2021/09/11 05:08:23;;;;;;;32.21;17.99;;;;;;;;;;356518;150;864930;-60
2021/09/11 05:09:25;;;;;;;28.37;16.67;;;;;;;;;;356184;148;859017;-60
2021/09/11 05:10:28;;;;;;;29.98;18.38;;;;;;;;;;354592;150;860171;-59
2021/09/11 05:11:30;;;;;;;28.89;18.13;;;;;;;;;;355793;149;857781;-60
2021/09/11 05:12:31;;;;;;;29.17;16.29;;;;;;;;;;355347;149;857305;-59
2021/09/11 05:13:33;;;;;;;29.84;17.44;;;;;;;;;;354520;148;856080;-60
2021/09/11 05:14:35;;;;;;;32.51;16.62;;;;;;;;;;355790;148;857981;-60
2021/09/11 05:15:36;;;;;;;36.86;19.35;;;;;;;;;;355386;149;856099;-60
2021/09/11 05:16:39;;;;;;;30.05;18.17;;;;;;;;;;355536;149;856750;-60
2021/09/11 05:17:40;;;;;;;33.43;18.69;;;;;;;;;;355399;148;863873;-60
2021/09/11 05:18:42;;;;;;;33.64;18.47;;;;;;;;;;356471;149;856223;-59
2021/09/11 05:19:44;;;;;;;31.96;16.99;;;;;;;;;;356469;149;863875;-61
2021/09/11 05:20:46;;;;;;;27.03;16.91;;;;;;;;;;354324;149;856352;-60
2021/09/11 05:21:47;;;;;;;31.78;17.96;;;;;;;;;;355860;148;856318;-61
2021/09/11 05:22:49;;;;;;;31.72;18.90;;;;;;;;;;355189;149;856399;-60
2021/09/11 05:23:50;;;;;;;31.34;17.69;;;;;;;;;;356690;149;856357;-61
2021/09/11 05:24:52;;;;;;;37.64;18.39;;;;;;;;;;355820;148;856745;-60
2021/09/11 05:25:53;;;;;;;25.84;15.60;;;;;;;;;;355758;149;856754;-60
2021/09/11 05:26:55;;;;;;;27.33;15.97;;;;;;;;;;353603;149;856785;-62
2021/09/11 05:27:57;;;;;;;30.34;17.00;;;;;;;;;;353546;148;856745;-62
2021/09/11 05:28:58;;;;;;;29.51;16.26;;;;;;;;;;355635;150;856592;-61
2021/09/11 05:30:00;;;;;;;28.46;16.56;;;;;;;;;;355059;149;863857;-60
2021/09/11 05:31:02;;;;;;;29.83;17.29;;;;;;;;;;355331;149;856091;-61
2021/09/11 05:32:03;;;;;;;27.41;17.21;;;;;;;;;;354114;148;856172;-61
2021/09/11 05:33:05;;;;;;;30.55;18.07;;;;;;;;;;355741;148;856198;-60
2021/09/11 05:34:07;;;;;;;30.24;17.67;;;;;;;;;;356231;149;856257;-61
2021/09/11 05:35:08;;;;;;;32.69;18.75;;;;;;;;;;354772;149;856202;-61
2021/09/11 05:36:11;;;;;;;35.31;18.94;;;;;;;;;;354598;148;856799;-61
2021/09/11 05:37:12;;;;;;;33.57;18.05;;;;;;;;;;356403;149;856116;-60
2021/09/11 05:38:14;;;;;;;29.79;15.82;;;;;;;;;;354760;150;856501;-61
2021/09/11 05:39:16;;;;;;;31.51;16.74;;;;;;;;;;350924;150;857016;-60
2021/09/11 05:40:19;;;;;;;30.87;16.91;;;;;;;;;;347479;152;856538;-61
2021/09/11 05:41:21;;;;;;;28.37;17.85;;;;;;;;;;351237;150;856258;-61
2021/09/11 05:42:23;;;;;;;29.29;16.66;;;;;;;;;;354174;150;857107;-61
2021/09/11 05:43:24;;;;;;;26.02;15.82;;;;;;;;;;354461;148;863894;-61
2021/09/11 05:44:26;;;;;;;30.36;17.01;;;;;;;;;;355900;149;856199;-61
2021/09/11 05:45:27;;;;;;;25.67;15.67;;;;;;;;;;356264;148;863813;-61
2021/09/11 05:46:30;;;;;;;31.96;16.66;;;;;;;;;;352635;148;863914;-61
2021/09/11 05:47:32;;;;;;;33.53;18.74;;;;;;;;;;354092;149;856217;-61
2021/09/11 05:48:34;;;;;;;30.24;18.20;;;;;;;;;;355305;149;863861;-61
2021/09/11 05:49:36;;;;;;;31.87;17.32;;;;;;;;;;353328;148;864284;-61
2021/09/11 05:50:40;;;;;;;30.62;17.23;;;;;;;;;;353567;148;864053;-61
2021/09/11 05:51:42;;;;;;;32.12;17.71;;;;;;;;;;354242;149;856714;-61
2021/09/11 05:52:44;;;;;;;31.14;17.69;;;;;;;;;;353488;149;856249;-60
2021/09/11 05:53:45;;;;;;;30.59;16.32;;;;;;;;;;354987;148;856728;-61
2021/09/11 05:54:47;;;;;;;29.36;17.44;;;;;;;;;;353393;148;856318;-61